Pilot Butte, Canada
Current Conditions -  °F | °C
As of 6:00 AM on Friday 31 Oct 2014 (Local Time) from CYQR Reporting Station
Overcast Overcast  
Wind Chill:   Ceiling: 800
Heat Index: 25°   Visibility: 15mi
Dew Point: 23°   Wind: 25mph
Humidity: 93%   Direction: 140°SE
Pressure: 30.25"   Gusts: 35mph
Location:  50.48°N, 104.42°W
Report Text: CYQR 311200Z 14022G30KT 15SM OVC008 M04/M05 A3025 RMK SC8 SLP280
Loading
Personal Weather Stations






























Interactive Weather Map New forecast layout! Learn more

10-Day Weather Forecast

Advertisements
Track Severe Weather on mobile